Time;durP1;ratioP1;P1;durP2;ratioP2;P2;SDS_P1;SDS_P2;PMS_P1;PMS_P2;Temp;Humidity;BMP_temperature;BMP_pressure;BME280_temperature;BME280_humidity;BME280_pressure;Samples;Min_cycle;Max_cycle;Signal;HPM_P1;HPM_P2
2022/06/19 00:00:49;;;;;;;28.08;25.73;;;21.90;99.90;;;;;;5045180;28;20045;-71
2022/06/19 00:03:26;;;;;;;27.60;24.95;;;22.00;99.90;;;;;;5046860;28;20044;-70
2022/06/19 00:05:53;;;;;;;27.77;25.30;;;22.00;99.90;;;;;;5045465;28;20087;-70
2022/06/19 00:08:20;;;;;;;28.17;25.25;;;22.00;99.90;;;;;;5048001;28;20668;-71
2022/06/19 00:10:48;;;;;;;27.15;24.73;;;22.10;99.90;;;;;;5047156;28;20105;-70
2022/06/19 00:13:16;;;;;;;27.55;25.08;;;22.10;99.90;;;;;;5047070;28;20453;-70
2022/06/19 00:15:42;;;;;;;28.17;25.40;;;22.20;99.90;;;;;;5045972;28;20049;-69
2022/06/19 00:18:10;;;;;;;27.85;25.05;;;22.20;99.90;;;;;;5047801;28;20156;-71
2022/06/19 00:20:38;;;;;;;28.15;25.58;;;22.20;99.90;;;;;;5046986;28;20045;-70
2022/06/19 00:23:05;;;;;;;28.77;25.73;;;22.30;99.90;;;;;;5048242;28;20395;-69
2022/06/19 00:25:34;;;;;;;28.25;25.35;;;22.30;99.90;;;;;;5046993;28;20049;-71
2022/06/19 00:28:01;;;;;;;28.23;25.83;;;22.40;99.90;;;;;;5047828;28;20044;-70
2022/06/19 00:30:28;;;;;;;27.75;24.67;;;22.40;99.90;;;;;;5028361;28;20049;-71
2022/06/19 00:32:54;;;;;;;28.25;25.35;;;22.40;99.90;;;;;;5047549;28;20503;-70
2022/06/19 00:35:21;;;;;;;30.10;27.02;;;22.40;99.90;;;;;;5060391;23;20073;-78
2022/06/19 00:37:48;;;;;;;28.23;25.60;;;22.40;99.90;;;;;;5045976;28;20053;-78
2022/06/19 00:40:15;;;;;;;27.90;25.00;;;22.40;99.90;;;;;;5058058;28;20044;-78
2022/06/19 00:42:42;;;;;;;28.83;25.73;;;22.30;99.90;;;;;;5064691;28;20045;-78
2022/06/19 00:45:28;;;;;;;27.23;24.95;;;22.40;99.90;;;;;;5063277;28;20049;-78
2022/06/19 00:47:55;;;;;;;27.00;24.75;;;22.20;99.90;;;;;;5047700;28;20053;-78
2022/06/19 00:50:29;;;;;;;28.92;25.15;;;22.30;99.90;;;;;;5030251;28;20041;-78
2022/06/19 00:52:56;;;;;;;28.75;26.17;;;22.20;99.90;;;;;;5012526;22;20060;-68
2022/06/19 00:55:28;;;;;;;28.45;25.52;;;22.20;99.90;;;;;;4991285;28;20097;-69
2022/06/19 00:58:02;;;;;;;28.63;25.35;;;22.20;99.90;;;;;;4987359;28;20065;-70
2022/06/19 01:00:30;;;;;;;28.73;26.13;;;22.10;99.90;;;;;;4980461;28;20067;-73
2022/06/19 01:03:01;;;;;;;28.10;24.60;;;22.10;99.90;;;;;;4977681;28;20086;-70
2022/06/19 01:05:29;;;;;;;27.65;24.80;;;22.00;99.90;;;;;;4983886;28;20042;-69
2022/06/19 01:07:59;;;;;;;27.58;24.70;;;21.90;99.90;;;;;;4987338;28;20517;-69
2022/06/19 01:10:27;;;;;;;29.63;25.15;;;21.90;99.90;;;;;;4986882;28;20082;-69
2022/06/19 01:12:57;;;;;;;27.15;24.63;;;21.90;99.90;;;;;;4985659;28;20626;-69
2022/06/19 01:15:25;;;;;;;28.23;25.15;;;21.90;99.90;;;;;;5001586;28;20100;-71
2022/06/19 01:17:57;;;;;;;27.65;24.98;;;21.80;99.90;;;;;;4986031;28;20142;-71
2022/06/19 01:20:26;;;;;;;26.30;23.75;;;21.70;99.90;;;;;;4986742;28;20466;-70
2022/06/19 01:23:08;;;;;;;25.63;23.02;;;21.70;99.90;;;;;;4998882;28;20535;-70
2022/06/19 01:25:38;;;;;;;26.90;24.58;;;21.80;99.90;;;;;;4975057;28;20101;-72
2022/06/19 01:30:58;;;;;;;28.23;24.83;;;21.80;99.90;;;;;;4985480;28;20088;-71
2022/06/19 01:33:37;;;;;;;26.73;24.20;;;21.70;99.90;;;;;;4973554;28;20407;-69
2022/06/19 01:36:06;;;;;;;26.52;24.05;;;21.60;99.90;;;;;;4975074;28;20047;-69
2022/06/19 01:38:34;;;;;;;26.15;23.83;;;21.50;99.90;;;;;;4985495;28;20116;-69
2022/06/19 01:41:06;;;;;;;26.75;23.98;;;21.50;99.90;;;;;;4966948;28;20051;-70
2022/06/19 01:43:34;;;;;;;28.77;24.20;;;21.50;99.90;;;;;;4987423;28;20073;-70
2022/06/19 01:46:01;;;;;;;34.83;23.63;;;21.40;99.90;;;;;;4992926;28;20668;-71
2022/06/19 01:48:31;;;;;;;28.38;24.23;;;21.40;99.90;;;;;;4985243;28;20088;-70
2022/06/19 01:51:00;;;;;;;28.90;22.17;;;21.40;99.90;;;;;;5000797;28;20078;-69
2022/06/19 01:53:55;;;;;;;24.25;21.95;;;21.40;99.90;;;;;;5000368;28;20131;-71
2022/06/19 01:56:23;;;;;;;25.65;21.80;;;21.40;99.90;;;;;;4966222;28;20501;-69
2022/06/19 01:58:52;;;;;;;26.80;22.05;;;21.50;99.90;;;;;;5004195;28;20499;-70
2022/06/19 02:01:20;;;;;;;24.17;21.60;;;21.50;99.90;;;;;;4994572;28;20073;-70
2022/06/19 02:03:50;;;;;;;23.58;21.45;;;21.60;99.90;;;;;;4991348;28;20050;-70
2022/06/19 02:06:20;;;;;;;28.75;20.90;;;21.50;99.90;;;;;;5000286;28;20045;-69
2022/06/19 02:08:48;;;;;;;24.70;21.70;;;21.60;99.90;;;;;;4988643;28;20070;-72
2022/06/19 02:11:16;;;;;;;25.08;21.15;;;21.70;99.90;;;;;;5005272;28;20528;-70
2022/06/19 02:13:44;;;;;;;22.73;20.45;;;21.70;99.90;;;;;;5004490;28;20188;-70
2022/06/19 02:16:18;;;;;;;24.05;21.58;;;21.80;99.90;;;;;;5005671;28;20088;-70
2022/06/19 02:18:48;;;;;;;23.45;20.15;;;21.80;99.90;;;;;;5006400;28;20054;-70
2022/06/19 02:21:18;;;;;;;27.00;20.67;;;21.90;99.90;;;;;;5005427;28;20049;-69
2022/06/19 02:23:47;;;;;;;23.80;20.15;;;22.00;99.90;;;;;;4998686;28;20049;-71
2022/06/19 02:26:14;;;;;;;25.45;20.45;;;22.10;99.90;;;;;;5003060;28;20080;-69
2022/06/19 02:28:48;;;;;;;22.13;19.58;;;22.20;99.90;;;;;;5005529;28;20081;-69
2022/06/19 02:31:16;;;;;;;21.23;19.02;;;22.20;99.90;;;;;;4978748;28;20687;-71
2022/06/19 02:33:49;;;;;;;23.48;19.90;;;22.20;99.90;;;;;;4987489;28;20469;-71
2022/06/19 02:36:36;;;;;;;23.02;19.48;;;22.20;99.90;;;;;;5002201;28;20041;-70
2022/06/19 02:39:48;;;;;;;21.90;19.67;;;22.20;99.90;;;;;;5001512;28;20058;-70
2022/06/19 02:42:20;;;;;;;28.95;20.25;;;22.30;99.90;;;;;;4981858;28;20500;-70
2022/06/19 02:45:01;;;;;;;21.75;19.50;;;22.30;99.90;;;;;;4983819;28;20054;-69
2022/06/19 02:47:32;;;;;;;20.90;18.70;;;22.20;99.90;;;;;;4996177;28;20527;-70
2022/06/19 02:49:59;;;;;;;27.05;20.23;;;22.10;99.90;;;;;;5005514;28;20104;-70
2022/06/19 02:52:26;;;;;;;22.33;19.75;;;22.00;99.90;;;;;;5003048;28;20050;-69
2022/06/19 02:54:53;;;;;;;21.95;19.60;;;22.00;99.90;;;;;;4995275;28;20050;-71
2022/06/19 02:57:19;;;;;;;20.80;18.73;;;21.90;99.90;;;;;;5002640;28;20050;-69
2022/06/19 02:59:47;;;;;;;23.23;20.73;;;22.00;99.90;;;;;;5002027;28;20049;-70
2022/06/19 03:02:14;;;;;;;25.10;18.48;;;22.10;99.90;;;;;;4991427;28;20115;-70
2022/06/19 03:04:59;;;;;;;21.60;18.73;;;22.20;99.90;;;;;;4992572;28;20049;-70
2022/06/19 03:07:29;;;;;;;20.60;18.65;;;22.30;99.90;;;;;;4996448;28;20107;-71
2022/06/19 03:09:56;;;;;;;25.35;19.17;;;22.40;99.90;;;;;;5005105;28;20108;-69
2022/06/19 03:12:23;;;;;;;25.73;18.05;;;22.50;99.90;;;;;;5003654;28;20070;-69
2022/06/19 03:14:50;;;;;;;25.45;17.95;;;22.60;99.90;;;;;;5004871;28;20179;-71
2022/06/19 03:17:21;;;;;;;25.88;18.02;;;22.70;99.90;;;;;;5004391;28;20076;-71
2022/06/19 03:19:54;;;;;;;27.77;18.73;;;22.90;99.90;;;;;;5002480;28;20140;-70
2022/06/19 03:22:21;;;;;;;25.58;18.02;;;23.00;99.90;;;;;;4986068;28;20045;-69
2022/06/19 03:24:48;;;;;;;33.83;19.60;;;23.10;99.90;;;;;;4994826;28;20069;-70
2022/06/19 03:27:15;;;;;;;21.77;18.40;;;23.30;99.90;;;;;;5004637;28;20073;-70
2022/06/19 03:29:42;;;;;;;22.08;19.05;;;23.40;99.90;;;;;;5003582;28;20137;-70
2022/06/19 03:32:13;;;;;;;26.58;20.92;;;23.40;99.90;;;;;;4991921;28;20536;-68
2022/06/19 03:34:42;;;;;;;27.20;21.50;;;23.60;99.90;;;;;;4992364;28;20563;-71
2022/06/19 03:37:09;;;;;;;26.35;21.90;;;23.60;99.90;;;;;;4996140;28;20049;-70
2022/06/19 03:39:36;;;;;;;23.80;21.40;;;23.70;99.90;;;;;;5004542;28;20081;-71
2022/06/19 03:42:03;;;;;;;27.92;21.58;;;23.70;99.90;;;;;;5004357;28;20104;-71
2022/06/19 03:44:30;;;;;;;23.75;21.42;;;23.70;99.90;;;;;;5003905;28;20546;-71
2022/06/19 03:46:57;;;;;;;24.48;22.35;;;23.80;99.90;;;;;;5002986;28;20050;-70
2022/06/19 03:49:24;;;;;;;23.55;21.15;;;23.80;99.90;;;;;;5004325;28;20129;-71
2022/06/19 03:51:51;;;;;;;23.80;20.70;;;23.80;99.90;;;;;;5002372;28;20243;-70
2022/06/19 03:54:18;;;;;;;27.10;21.33;;;23.80;99.90;;;;;;4993690;28;20366;-69
2022/06/19 03:56:45;;;;;;;24.27;22.02;;;23.80;99.90;;;;;;4983550;28;20070;-70
2022/06/19 03:59:15;;;;;;;26.65;22.50;;;23.90;99.90;;;;;;5003937;28;20579;-71
2022/06/19 04:01:41;;;;;;;25.55;20.60;;;23.90;99.90;;;;;;4994291;28;20108;-71
2022/06/19 04:04:10;;;;;;;32.22;22.00;;;23.90;99.90;;;;;;4972912;28;20069;-69
2022/06/19 04:06:40;;;;;;;24.42;21.63;;;23.80;99.90;;;;;;4992264;28;20054;-70
2022/06/19 04:09:11;;;;;;;26.63;22.45;;;23.80;99.90;;;;;;4988598;28;20082;-71
2022/06/19 04:11:37;;;;;;;30.73;21.08;;;23.80;99.90;;;;;;5003548;28;20448;-70
2022/06/19 04:14:04;;;;;;;25.23;21.70;;;23.80;99.90;;;;;;5003709;28;20054;-71
2022/06/19 04:16:32;;;;;;;27.73;22.42;;;23.80;99.90;;;;;;5003950;28;20069;-70
2022/06/19 04:19:02;;;;;;;24.35;21.98;;;23.80;99.90;;;;;;5003522;28;20526;-70
2022/06/19 04:21:31;;;;;;;34.28;22.17;;;23.80;99.90;;;;;;5002945;28;20103;-70
2022/06/19 04:24:03;;;;;;;29.25;21.40;;;23.90;99.90;;;;;;4980486;28;20116;-69
2022/06/19 04:26:31;;;;;;;29.63;21.92;;;23.90;99.90;;;;;;4971048;28;20061;-70
2022/06/19 04:28:58;;;;;;;26.95;22.15;;;23.90;99.90;;;;;;4985058;28;20054;-70
2022/06/19 04:31:26;;;;;;;28.73;22.00;;;23.90;99.90;;;;;;4995996;28;20050;-70
2022/06/19 04:33:53;;;;;;;27.25;21.70;;;24.00;99.90;;;;;;5002115;28;20120;-69
2022/06/19 04:36:22;;;;;;;24.52;21.25;;;24.10;99.90;;;;;;4995036;28;20046;-69
2022/06/19 04:38:50;;;;;;;24.33;21.55;;;24.20;99.90;;;;;;4986618;28;20062;-71
2022/06/19 04:41:24;;;;;;;27.45;22.15;;;24.30;99.90;;;;;;5003125;28;20034;-69
2022/06/19 04:43:51;;;;;;;29.23;21.85;;;24.40;99.90;;;;;;4985914;28;20459;-70
2022/06/19 04:46:19;;;;;;;27.90;21.67;;;24.40;99.90;;;;;;5002829;28;20107;-69
2022/06/19 04:48:47;;;;;;;27.45;21.63;;;24.60;99.90;;;;;;5007168;28;20181;-69
2022/06/19 04:51:15;;;;;;;24.58;21.98;;;24.70;99.90;;;;;;5005638;28;20049;-68
2022/06/19 04:53:42;;;;;;;25.13;22.67;;;24.80;99.90;;;;;;5002617;28;20593;-69
2022/06/19 04:56:11;;;;;;;26.25;22.45;;;25.00;99.90;;;;;;5000097;28;20089;-70
2022/06/19 04:58:39;;;;;;;33.40;22.77;;;25.00;99.90;;;;;;5006065;28;20786;-70
2022/06/19 05:01:20;;;;;;;26.88;22.77;;;25.10;99.90;;;;;;4997711;28;20045;-70
2022/06/19 05:03:47;;;;;;;33.20;23.73;;;25.20;99.90;;;;;;4993163;28;20052;-71
2022/06/19 05:06:13;;;;;;;28.02;23.33;;;25.50;99.90;;;;;;5000692;28;20096;-71
2022/06/19 05:08:40;;;;;;;26.13;23.52;;;25.60;99.90;;;;;;4989602;28;20073;-69
2022/06/19 05:11:10;;;;;;;26.30;23.58;;;25.70;99.90;;;;;;4989320;28;20054;-69
2022/06/19 05:13:37;;;;;;;31.45;24.08;;;25.80;99.90;;;;;;5006508;28;20119;-70
2022/06/19 05:16:07;;;;;;;24.73;22.17;;;26.10;99.90;;;;;;5006603;28;20046;-70
2022/06/19 05:18:34;;;;;;;29.88;22.55;;;26.50;99.90;;;;;;5006929;28;20467;-70
2022/06/19 05:21:04;;;;;;;28.20;23.15;;;26.50;99.90;;;;;;5005989;28;20417;-70
2022/06/19 05:23:35;;;;;;;31.20;24.23;;;26.50;99.90;;;;;;4998663;28;20524;-69
2022/06/19 05:26:06;;;;;;;31.15;28.38;;;26.20;99.90;;;;;;4991803;28;20070;-72
2022/06/19 05:28:34;;;;;;;35.92;32.78;;;25.00;99.90;;;;;;4987144;28;20082;-72
2022/06/19 05:31:02;;;;;;;36.33;32.83;;;23.90;99.90;;;;;;4995905;28;20045;-68
2022/06/19 05:33:30;;;;;;;36.25;33.15;;;23.40;99.90;;;;;;5004982;28;20614;-69
2022/06/19 05:35:57;;;;;;;35.88;32.70;;;22.70;99.90;;;;;;5000671;28;20042;-70
2022/06/19 05:38:25;;;;;;;37.17;33.95;;;22.60;99.90;;;;;;4989906;28;20530;-70
2022/06/19 05:40:53;;;;;;;37.13;33.58;;;22.60;99.90;;;;;;5005629;28;20050;-70
2022/06/19 05:43:22;;;;;;;34.42;31.67;;;22.30;99.90;;;;;;4988758;28;20046;-71
2022/06/19 05:45:57;;;;;;;35.38;32.08;;;21.80;99.90;;;;;;5005470;28;20100;-69
2022/06/19 05:48:25;;;;;;;32.92;30.30;;;21.70;99.90;;;;;;5005015;28;20574;-69
2022/06/19 05:51:06;;;;;;;31.30;29.08;;;21.70;99.90;;;;;;5005751;28;20045;-70
2022/06/19 05:53:39;;;;;;;31.75;29.00;;;21.70;99.90;;;;;;5002172;28;20042;-70
2022/06/19 05:56:06;;;;;;;30.65;28.27;;;22.00;99.90;;;;;;4997347;28;20108;-69
2022/06/19 05:58:34;;;;;;;31.48;29.17;;;21.90;99.90;;;;;;4988640;28;20120;-70
2022/06/19 06:01:02;;;;;;;33.33;30.85;;;21.60;99.90;;;;;;4995091;28;20038;-69
2022/06/19 06:03:29;;;;;;;31.17;28.73;;;21.90;99.90;;;;;;5001154;28;20104;-69
2022/06/19 06:06:06;;;;;;;30.63;27.88;;;21.60;99.90;;;;;;4999902;28;20588;-70
2022/06/19 06:08:37;;;;;;;30.33;28.10;;;21.40;99.90;;;;;;4986694;28;20085;-70
2022/06/19 06:11:04;;;;;;;30.17;28.27;;;21.60;99.90;;;;;;5002054;28;20069;-70
2022/06/19 06:13:32;;;;;;;29.00;27.13;;;21.60;99.90;;;;;;5005534;28;20049;-70
2022/06/19 06:15:59;;;;;;;30.48;28.38;;;21.80;99.90;;;;;;5006114;28;20046;-71
2022/06/19 06:18:27;;;;;;;29.33;27.35;;;21.80;99.90;;;;;;5005918;28;20052;-69
2022/06/19 06:21:03;;;;;;;29.45;27.55;;;22.00;99.90;;;;;;5003064;28;20121;-69
2022/06/19 06:23:31;;;;;;;28.50;26.25;;;21.90;99.90;;;;;;5001882;28;20076;-69
2022/06/19 06:26:03;;;;;;;28.67;26.70;;;21.90;99.90;;;;;;4991353;28;20057;-70
2022/06/19 06:28:30;;;;;;;28.67;26.50;;;21.90;99.90;;;;;;4985887;28;20112;-70
2022/06/19 06:30:58;;;;;;;28.35;26.50;;;21.80;99.90;;;;;;4998151;28;20129;-70
2022/06/19 06:33:25;;;;;;;28.95;27.13;;;21.90;99.90;;;;;;4990847;28;20808;-69
2022/06/19 06:35:52;;;;;;;28.33;26.70;;;21.90;99.90;;;;;;5077196;23;20059;-75
2022/06/19 06:38:19;;;;;;;28.45;26.65;;;21.90;99.90;;;;;;5086801;28;20415;-75
2022/06/19 06:40:45;;;;;;;27.92;26.05;;;21.90;99.90;;;;;;5068416;28;20040;-75
2022/06/19 06:43:12;;;;;;;29.00;26.70;;;21.90;99.90;;;;;;5069527;28;20070;-75
2022/06/19 06:45:39;;;;;;;27.35;25.38;;;22.00;99.90;;;;;;5089003;28;20122;-75
2022/06/19 06:48:06;;;;;;;28.15;26.33;;;22.20;99.90;;;;;;5089102;28;20449;-76
2022/06/19 06:50:34;;;;;;;28.48;26.25;;;22.40;99.90;;;;;;5071945;28;20434;-75
2022/06/19 06:53:01;;;;;;;28.05;26.10;;;22.80;99.90;;;;;;5049617;22;20038;-76
2022/06/19 06:55:27;;;;;;;28.77;26.50;;;22.80;99.90;;;;;;4987430;28;20049;-76
2022/06/19 06:57:54;;;;;;;27.73;26.13;;;22.70;99.90;;;;;;4988206;28;20054;-76
2022/06/19 07:00:23;;;;;;;27.95;26.10;;;22.90;99.90;;;;;;4995121;28;20104;-76
2022/06/19 07:02:51;;;;;;;28.15;26.17;;;22.80;99.90;;;;;;4979786;28;20087;-76
2022/06/19 07:05:18;;;;;;;27.35;25.60;;;23.00;99.90;;;;;;4995742;28;20052;-76
2022/06/19 07:07:45;;;;;;;27.35;25.30;;;22.70;99.90;;;;;;4987963;28;20042;-76
2022/06/19 07:10:12;;;;;;;27.13;25.10;;;22.60;99.90;;;;;;4987236;28;20046;-76
2022/06/19 07:12:49;;;;;;;26.40;24.37;;;22.70;99.90;;;;;;4993104;28;20129;-76
2022/06/19 07:15:16;;;;;;;24.15;22.60;;;23.00;99.90;;;;;;4967986;28;20507;-75
2022/06/19 07:17:43;;;;;;;26.27;24.45;;;22.80;99.90;;;;;;4969053;28;20066;-76
2022/06/19 07:20:10;;;;;;;26.80;24.40;;;22.80;99.90;;;;;;4986176;28;20065;-76
2022/06/19 07:22:38;;;;;;;25.08;23.38;;;22.70;99.90;;;;;;4993633;28;20069;-76
2022/06/19 07:25:06;;;;;;;26.65;24.35;;;22.60;99.90;;;;;;4983715;28;20108;-76
2022/06/19 07:27:33;;;;;;;25.92;23.75;;;22.60;99.90;;;;;;5000505;28;20675;-75
2022/06/19 07:30:01;;;;;;;26.65;24.52;;;22.40;99.90;;;;;;4992738;28;20096;-76
2022/06/19 07:32:28;;;;;;;27.02;25.15;;;22.40;99.90;;;;;;4989997;28;20050;-76
2022/06/19 07:34:55;;;;;;;26.10;24.05;;;22.70;99.90;;;;;;4978778;28;20042;-76
2022/06/19 07:37:22;;;;;;;24.88;23.20;;;22.40;99.90;;;;;;4991080;28;20046;-76
2022/06/19 07:39:49;;;;;;;27.27;24.80;;;22.30;99.90;;;;;;4975412;28;20086;-76
2022/06/19 07:42:16;;;;;;;28.42;25.35;;;22.50;99.90;;;;;;4968004;28;20046;-76
2022/06/19 07:44:43;;;;;;;28.23;25.75;;;22.50;99.90;;;;;;4971936;28;20074;-76
2022/06/19 07:50:16;;;;;;;30.80;28.33;;;22.60;99.90;;;;;;4984367;28;20058;-76
2022/06/19 07:52:48;;;;;;;30.30;27.70;;;22.80;99.90;;;;;;4968643;28;20054;-76
2022/06/19 07:55:21;;;;;;;30.05;27.83;;;23.20;99.90;;;;;;5001058;28;20076;-76
2022/06/19 07:57:49;;;;;;;32.55;29.83;;;23.70;99.90;;;;;;4987074;28;20046;-75
2022/06/19 08:00:19;;;;;;;32.58;30.50;;;23.80;99.90;;;;;;4993648;28;20042;-76
2022/06/19 08:02:52;;;;;;;31.85;29.42;;;22.80;99.90;;;;;;4983958;28;20554;-76
2022/06/19 08:05:21;;;;;;;32.83;30.52;;;23.00;99.90;;;;;;4977846;28;20507;-76
2022/06/19 08:07:50;;;;;;;31.50;29.33;;;23.40;99.90;;;;;;4973383;28;20419;-76
2022/06/19 08:10:21;;;;;;;30.73;28.67;;;23.80;99.90;;;;;;4967817;28;20082;-76
2022/06/19 08:12:50;;;;;;;33.47;30.52;;;24.30;99.90;;;;;;4984741;28;20408;-76
2022/06/19 08:15:42;;;;;;;33.20;30.80;;;24.30;99.90;;;;;;4984352;28;20062;-76
2022/06/19 08:18:09;;;;;;;32.13;29.35;;;24.80;99.90;;;;;;5003658;28;20053;-76
2022/06/19 08:20:36;;;;;;;32.65;29.95;;;24.70;99.90;;;;;;4986544;28;20041;-76
2022/06/19 08:23:03;;;;;;;32.15;29.73;;;24.70;99.90;;;;;;5004666;28;20050;-76
2022/06/19 08:25:30;;;;;;;30.08;27.65;;;24.70;99.90;;;;;;4992585;28;20100;-76
2022/06/19 08:27:58;;;;;;;30.63;28.63;;;25.10;99.90;;;;;;4991644;28;20060;-76
2022/06/19 08:30:29;;;;;;;29.75;27.33;;;25.40;99.90;;;;;;4986749;28;20140;-76
2022/06/19 08:33:02;;;;;;;29.92;27.70;;;25.20;99.90;;;;;;4990976;28;20558;-76
2022/06/19 08:35:33;;;;;;;27.08;25.33;;;25.00;99.90;;;;;;5004318;28;20495;-76
2022/06/19 08:38:06;;;;;;;28.23;26.00;;;25.30;99.90;;;;;;4986788;28;20124;-76
2022/06/19 08:40:43;;;;;;;28.55;26.23;;;25.10;99.90;;;;;;5004657;28;20108;-76
2022/06/19 08:43:31;;;;;;;29.58;27.10;;;25.00;99.90;;;;;;5006283;28;20056;-76
2022/06/19 08:46:19;;;;;;;28.05;25.98;;;24.50;99.90;;;;;;5007565;28;20112;-76
2022/06/19 08:49:15;;;;;;;29.15;26.90;;;24.20;99.90;;;;;;4971656;28;20933;-76
2022/06/19 08:52:13;;;;;;;29.23;26.92;;;23.80;99.90;;;;;;4970161;28;20088;-76
2022/06/19 08:55:21;;;;;;;29.10;26.65;;;23.90;99.90;;;;;;5001569;28;20046;-76
2022/06/19 08:58:25;;;;;;;27.15;25.25;;;23.60;99.90;;;;;;4919648;28;20065;-76
2022/06/19 09:01:26;;;;;;;27.95;25.52;;;23.90;99.90;;;;;;4995750;28;20553;-76
2022/06/19 09:07:07;;;;;;;30.23;27.55;;;23.60;99.90;;;;;;5004732;28;20725;-76
2022/06/19 09:10:02;;;;;;;29.55;27.02;;;23.40;99.90;;;;;;5007165;28;20054;-76
2022/06/19 09:12:54;;;;;;;28.92;26.17;;;23.50;99.90;;;;;;5006442;28;20073;-76
2022/06/19 09:15:33;;;;;;;23.98;22.00;;;23.60;99.90;;;;;;4990197;28;20105;-76
2022/06/19 09:18:11;;;;;;;29.85;26.80;;;23.60;99.90;;;;;;5006484;28;20046;-76
2022/06/19 09:20:58;;;;;;;29.60;26.90;;;23.20;99.90;;;;;;4988215;28;20092;-76
2022/06/19 09:23:37;;;;;;;28.08;25.83;;;23.00;99.90;;;;;;4978013;28;20042;-76
2022/06/19 09:26:21;;;;;;;28.90;25.85;;;23.00;99.90;;;;;;5000610;28;20498;-76
2022/06/19 09:28:50;;;;;;;28.75;26.27;;;23.20;99.90;;;;;;5004741;28;20042;-75
2022/06/19 09:31:31;;;;;;;31.33;25.42;;;23.40;99.90;;;;;;4993906;28;20046;-76
2022/06/19 09:34:10;;;;;;;27.20;24.33;;;23.40;99.90;;;;;;4988253;28;20074;-75
2022/06/19 09:36:43;;;;;;;27.05;24.50;;;23.20;99.90;;;;;;4994787;28;20097;-77
2022/06/19 09:39:33;;;;;;;28.13;25.20;;;23.10;99.90;;;;;;4990737;28;20565;-75
2022/06/19 09:42:21;;;;;;;28.52;26.05;;;22.90;99.90;;;;;;4970206;28;20046;-75
2022/06/19 09:45:07;;;;;;;27.85;25.42;;;23.00;99.90;;;;;;4971047;28;20108;-75
2022/06/19 09:47:39;;;;;;;26.70;24.08;;;23.40;99.90;;;;;;4969378;28;20058;-75
2022/06/19 09:50:30;;;;;;;28.67;26.40;;;23.80;99.90;;;;;;4970168;28;20085;-77
2022/06/19 09:53:08;;;;;;;28.75;26.10;;;23.90;99.90;;;;;;4993782;28;20526;-75
2022/06/19 09:55:42;;;;;;;29.23;26.85;;;23.80;99.90;;;;;;4996651;28;20558;-77
2022/06/19 09:58:29;;;;;;;28.75;26.10;;;23.70;99.90;;;;;;5001664;28;20049;-76
2022/06/19 10:00:59;;;;;;;28.20;26.05;;;23.70;99.90;;;;;;4978764;28;20538;-76
2022/06/19 10:03:37;;;;;;;30.33;27.65;;;23.50;99.90;;;;;;4969497;28;20043;-75
2022/06/19 10:06:15;;;;;;;29.60;26.98;;;23.50;99.90;;;;;;4993844;28;20629;-76
2022/06/19 10:08:48;;;;;;;29.77;26.80;;;23.60;99.90;;;;;;5005839;28;20108;-76
2022/06/19 10:11:26;;;;;;;28.67;25.85;;;23.60;99.90;;;;;;5005386;28;20054;-76
2022/06/19 10:14:03;;;;;;;27.25;24.50;;;23.70;99.90;;;;;;4998381;28;20054;-77
2022/06/19 10:16:48;;;;;;;28.10;25.15;;;23.70;99.90;;;;;;5005457;28;20057;-76
2022/06/19 10:19:23;;;;;;;30.08;27.30;;;24.10;99.90;;;;;;5006393;28;20125;-76
2022/06/19 10:22:13;;;;;;;;;;;24.00;99.90;;;;;;4988062;28;20042;-76
2022/06/19 10:25:04;;;;;;;29.77;26.75;;;23.70;99.90;;;;;;4999652;28;19921;-77
2022/06/19 10:27:46;;;;;;;29.02;26.58;;;23.70;99.90;;;;;;4987526;28;20053;-76
2022/06/19 10:30:15;;;;;;;29.13;26.60;;;23.60;99.90;;;;;;4992628;28;20053;-77
2022/06/19 10:33:05;;;;;;;29.25;26.40;;;23.70;99.90;;;;;;5005107;28;20507;-76
2022/06/19 10:35:40;;;;;;;28.98;26.23;;;24.10;99.90;;;;;;4997026;28;20387;-76
2022/06/19 10:38:06;;;;;;;;;;;24.30;99.90;;;;;;4999754;28;20081;-76
2022/06/19 10:40:36;;;;;;;29.13;26.52;;;24.40;99.90;;;;;;4987652;28;19926;-77
2022/06/19 10:43:20;;;;;;;30.40;27.60;;;24.60;99.90;;;;;;5004676;28;20050;-77
2022/06/19 10:45:53;;;;;;;31.02;28.33;;;25.00;99.90;;;;;;4983088;28;20042;-77
2022/06/19 10:48:31;;;;;;;28.83;26.08;;;25.00;99.90;;;;;;4984679;28;20510;-77
2022/06/19 10:51:13;;;;;;;29.27;26.50;;;24.80;99.90;;;;;;4967947;28;20054;-76
2022/06/19 10:53:49;;;;;;;32.28;26.05;;;24.20;99.90;;;;;;4987038;28;20057;-76
2022/06/19 10:56:25;;;;;;;28.13;25.73;;;24.20;99.90;;;;;;4986958;28;20054;-77
2022/06/19 10:58:52;;;;;;;28.40;25.75;;;24.50;99.90;;;;;;4991730;28;20053;-76
2022/06/19 11:04:15;;;;;;;26.98;24.70;;;24.40;99.90;;;;;;4991728;28;20125;-76
2022/06/19 11:06:53;;;;;;;28.92;26.50;;;23.90;99.90;;;;;;4991020;28;20038;-76
2022/06/19 11:09:35;;;;;;;27.25;24.80;;;23.60;99.90;;;;;;4983847;28;20117;-77
2022/06/19 11:12:15;;;;;;;34.03;31.15;;;23.50;99.90;;;;;;4984254;28;20042;-76
2022/06/19 11:14:55;;;;;;;28.35;25.73;;;23.50;99.90;;;;;;4982992;28;20046;-76
2022/06/19 11:17:32;;;;;;;26.98;24.25;;;23.60;99.90;;;;;;4983673;28;20046;-77
2022/06/19 11:20:14;;;;;;;33.10;26.10;;;23.00;99.90;;;;;;4983326;28;20047;-75
2022/06/19 11:22:42;;;;;;;29.35;26.63;;;23.10;99.90;;;;;;4984328;28;20046;-76
2022/06/19 11:25:21;;;;;;;29.05;26.83;;;23.60;99.90;;;;;;4994705;28;20068;-76
2022/06/19 11:28:17;;;;;;;31.80;28.85;;;23.90;99.90;;;;;;4968738;28;20053;-76
2022/06/19 11:30:54;;;;;;;31.38;29.10;;;23.80;99.90;;;;;;4980310;28;20131;-76
2022/06/19 11:33:34;;;;;;;31.40;28.92;;;23.80;99.90;;;;;;5002663;28;20054;-76
2022/06/19 11:36:05;;;;;;;33.42;30.30;;;23.70;99.90;;;;;;5009265;28;20097;-76
2022/06/19 11:38:36;;;;;;;30.60;28.17;;;24.10;99.90;;;;;;5009760;28;20058;-76
2022/06/19 11:41:21;;;;;;;32.03;29.08;;;24.20;99.90;;;;;;5026974;28;20052;-75
2022/06/19 11:44:05;;;;;;;33.50;30.70;;;24.40;99.90;;;;;;5027363;28;20092;-76
2022/06/19 11:46:50;;;;;;;33.60;30.93;;;24.60;99.90;;;;;;5018630;28;20052;-76
2022/06/19 11:49:31;;;;;;;;;;;24.60;99.90;;;;;;4990450;28;20080;-76
2022/06/19 11:52:12;;;;;;;31.70;28.70;;;24.60;99.90;;;;;;5004684;28;19925;-76
2022/06/19 11:54:44;;;;;;;33.97;31.48;;;24.70;99.90;;;;;;4997322;28;20049;-75
2022/06/19 11:57:27;;;;;;;34.17;31.00;;;24.30;99.90;;;;;;4992442;28;20058;-76
2022/06/19 11:59:59;;;;;;;32.70;30.15;;;23.90;99.90;;;;;;5002702;28;20053;-75
2022/06/19 12:02:39;;;;;;;31.55;28.63;;;23.40;99.90;;;;;;4993813;28;20038;-76
2022/06/19 12:05:28;;;;;;;29.30;26.83;;;23.40;99.90;;;;;;5006230;28;20073;-75
2022/06/19 12:08:05;;;;;;;29.27;27.23;;;23.00;99.90;;;;;;5010897;28;20080;-76
2022/06/19 12:10:38;;;;;;;32.13;29.05;;;23.00;99.90;;;;;;4993326;28;20069;-76
2022/06/19 12:13:19;;;;;;;28.77;26.33;;;23.00;99.90;;;;;;4993022;28;20046;-76
2022/06/19 12:15:54;;;;;;;29.60;27.00;;;22.80;99.90;;;;;;5001697;28;20049;-77
2022/06/19 12:18:21;;;;;;;29.77;27.02;;;23.30;99.90;;;;;;5001520;28;20107;-76
2022/06/19 12:21:20;;;;;;;27.67;25.55;;;23.70;99.90;;;;;;4990207;28;20140;-76
2022/06/19 12:24:03;;;;;;;30.77;28.40;;;23.30;99.90;;;;;;4998289;28;20061;-76
2022/06/19 12:26:48;;;;;;;31.83;29.63;;;23.30;99.90;;;;;;5001500;28;20787;-76
2022/06/19 12:29:15;;;;;;;33.47;31.15;;;23.40;99.90;;;;;;4990830;28;20041;-76
2022/06/19 12:31:42;;;;;;;32.17;29.45;;;23.30;99.90;;;;;;4975896;28;20104;-76
2022/06/19 12:34:26;;;;;;;35.15;32.75;;;23.50;99.90;;;;;;4997946;28;20077;-77
2022/06/19 12:36:54;;;;;;;33.22;30.65;;;24.10;99.90;;;;;;4999742;28;20104;-77
2022/06/19 12:39:25;;;;;;;32.78;30.02;;;24.60;99.90;;;;;;4974304;28;20546;-77
2022/06/19 12:42:03;;;;;;;31.90;29.30;;;24.70;99.90;;;;;;4988507;28;20065;-76
2022/06/19 12:44:49;;;;;;;34.60;31.88;;;24.80;99.90;;;;;;5011060;28;20045;-76
2022/06/19 12:47:35;;;;;;;33.72;31.05;;;24.90;99.90;;;;;;4996979;28;20072;-77
2022/06/19 12:50:17;;;;;;;33.70;31.45;;;24.80;99.90;;;;;;4974854;28;20735;-76
2022/06/19 12:53:04;;;;;;;33.22;31.02;;;24.90;99.90;;;;;;4979991;28;20073;-76
2022/06/19 12:55:52;;;;;;;30.05;28.05;;;24.80;99.90;;;;;;5000126;28;20101;-76
2022/06/19 12:58:33;;;;;;;31.92;29.48;;;25.10;99.90;;;;;;4996328;28;20045;-76
2022/06/19 13:01:09;;;;;;;29.10;26.73;;;25.00;99.90;;;;;;5001292;28;20093;-76
2022/06/19 13:03:58;;;;;;;26.63;24.52;;;25.30;99.90;;;;;;4997838;28;20049;-76
2022/06/19 13:06:48;;;;;;;30.42;27.80;;;25.00;99.90;;;;;;4995370;28;20054;-76
2022/06/19 13:09:36;;;;;;;30.48;28.25;;;25.00;99.90;;;;;;5007296;28;20045;-76